Time;durP1;ratioP1;P1;durP2;ratioP2;P2;SDS_P1;SDS_P2;PMS_P1;PMS_P2;Temp;Humidity;BMP_temperature;BMP_pressure;BME280_temperature;BME280_humidity;BME280_pressure;Samples;Min_cycle;Max_cycle;Signal;HPM_P1;HPM_P2
2023/07/13 00:00:50;;;;;;;9.07;2.50;;;20.50;81.30;;;;;;4131840;28;20093;-52
2023/07/13 00:02:55;;;;;;;5.95;1.90;;;20.50;81.80;;;;;;4131634;28;20045;-52
2023/07/13 00:04:57;;;;;;;7.10;1.95;;;20.40;81.80;;;;;;4130860;28;20038;-53
2023/07/13 00:07:00;;;;;;;8.02;2.00;;;20.40;81.80;;;;;;4132145;28;20050;-52
2023/07/13 00:09:03;;;;;;;8.77;2.38;;;20.30;81.90;;;;;;4131836;28;20042;-53
2023/07/13 00:11:06;;;;;;;8.27;2.10;;;20.30;82.10;;;;;;4131745;28;20077;-52
2023/07/13 00:13:09;;;;;;;13.45;2.85;;;20.30;81.90;;;;;;4131789;28;20449;-53
2023/07/13 00:15:15;;;;;;;8.07;2.17;;;20.30;82.10;;;;;;4131162;28;20401;-51
2023/07/13 00:17:20;;;;;;;4.35;1.73;;;20.30;82.30;;;;;;4131750;28;20093;-52
2023/07/13 00:19:22;;;;;;;4.90;1.90;;;20.40;82.00;;;;;;4131168;28;20046;-52
2023/07/13 00:21:24;;;;;;;7.80;2.13;;;20.30;82.30;;;;;;4131600;28;20055;-52
2023/07/13 00:23:27;;;;;;;4.47;1.60;;;20.30;82.60;;;;;;4131266;28;20050;-53
2023/07/13 00:25:30;;;;;;;9.85;2.35;;;20.30;82.40;;;;;;4117066;28;20133;-52
2023/07/13 00:27:33;;;;;;;9.65;1.92;;;20.20;82.40;;;;;;4131717;28;20133;-50
2023/07/13 00:29:35;;;;;;;4.22;1.73;;;20.30;82.70;;;;;;4131709;28;20544;-51
2023/07/13 00:31:37;;;;;;;5.80;1.70;;;20.30;82.50;;;;;;4132224;28;20050;-54
2023/07/13 00:33:40;;;;;;;6.47;2.17;;;20.30;82.80;;;;;;4130680;28;20548;-52
2023/07/13 00:35:43;;;;;;;9.23;2.20;;;20.30;82.90;;;;;;4131226;28;20046;-52
2023/07/13 00:37:46;;;;;;;9.57;2.47;;;20.40;83.00;;;;;;4131859;28;20112;-52
2023/07/13 00:39:49;;;;;;;9.88;2.17;;;20.40;82.80;;;;;;4131527;28;20145;-52
2023/07/13 00:41:52;;;;;;;4.82;1.55;;;20.30;82.90;;;;;;4131757;28;20043;-52
2023/07/13 00:43:54;;;;;;;8.10;1.90;;;20.40;83.00;;;;;;4130750;28;20050;-52
2023/07/13 00:46:25;;;;;;;7.05;1.80;;;20.40;82.70;;;;;;4131140;28;20569;-53
2023/07/13 00:48:31;;;;;;;6.25;1.75;;;20.50;82.70;;;;;;4116150;28;20133;-58
2023/07/13 00:50:34;;;;;;;9.57;1.67;;;20.40;82.70;;;;;;4128531;28;20053;-52
2023/07/13 00:52:41;;;;;;;3.92;1.48;;;20.50;83.00;;;;;;4131699;28;20046;-52
2023/07/13 00:54:46;;;;;;;5.55;1.40;;;20.50;82.50;;;;;;4128653;28;20057;-52
2023/07/13 00:56:52;;;;;;;4.78;1.85;;;20.40;82.50;;;;;;4131111;28;20052;-51
2023/07/13 00:58:57;;;;;;;6.82;2.00;;;20.40;82.50;;;;;;4129958;28;20082;-53
2023/07/13 01:00:59;;;;;;;5.82;1.83;;;20.50;82.60;;;;;;4113958;28;20051;-51
2023/07/13 01:03:04;;;;;;;8.95;1.90;;;20.50;82.40;;;;;;4131143;28;20490;-51
2023/07/13 01:05:09;;;;;;;6.20;1.75;;;20.50;82.40;;;;;;4130409;28;20076;-53
2023/07/13 01:07:12;;;;;;;7.43;1.67;;;20.50;82.80;;;;;;4131448;28;20046;-53
2023/07/13 01:09:15;;;;;;;3.50;1.65;;;20.50;82.80;;;;;;4131523;28;20562;-52
2023/07/13 01:11:20;;;;;;;6.53;1.83;;;20.50;82.70;;;;;;4131076;28;20042;-52
2023/07/13 01:13:23;;;;;;;5.78;1.58;;;20.50;82.60;;;;;;4130722;28;20077;-52
2023/07/13 01:15:38;;;;;;;4.50;1.70;;;20.50;82.50;;;;;;4130293;28;20065;-52
2023/07/13 01:17:41;;;;;;;6.28;1.58;;;20.60;83.20;;;;;;4119405;28;20046;-51
2023/07/13 01:19:44;;;;;;;6.35;1.20;;;20.50;82.30;;;;;;4130971;28;20494;-51
2023/07/13 01:21:51;;;;;;;5.40;1.67;;;20.50;82.60;;;;;;4130800;28;20050;-51
2023/07/13 01:23:53;;;;;;;5.30;1.60;;;20.60;82.60;;;;;;4130262;28;20046;-51
2023/07/13 01:25:57;;;;;;;3.85;1.50;;;20.60;82.60;;;;;;4130865;28;20054;-52
2023/07/13 01:27:59;;;;;;;5.68;1.42;;;20.60;82.90;;;;;;4120068;28;20080;-52
2023/07/13 01:30:04;;;;;;;5.00;1.80;;;20.50;82.90;;;;;;4130943;28;20077;-51
2023/07/13 01:32:08;;;;;;;11.25;2.65;;;20.50;83.10;;;;;;4130034;28;20047;-52
2023/07/13 01:34:10;;;;;;;6.07;2.07;;;20.50;83.20;;;;;;4129868;28;20072;-52
2023/07/13 01:36:12;;;;;;;8.30;1.60;;;20.50;83.30;;;;;;4130655;28;20134;-51
2023/07/13 01:38:18;;;;;;;6.75;1.98;;;20.40;83.40;;;;;;4130674;28;20152;-53
2023/07/13 01:40:20;;;;;;;8.02;1.80;;;20.50;83.60;;;;;;4113601;28;20050;-51
2023/07/13 01:42:23;;;;;;;6.00;2.00;;;20.50;83.40;;;;;;4130265;28;20046;-60
2023/07/13 01:44:25;;;;;;;5.85;1.80;;;20.50;83.30;;;;;;4129851;28;20409;-52
2023/07/13 01:46:27;;;;;;;6.90;1.92;;;20.40;83.50;;;;;;4130088;28;20097;-51
2023/07/13 01:48:30;;;;;;;5.10;1.70;;;20.50;83.20;;;;;;4130619;28;20105;-51
2023/07/13 01:50:33;;;;;;;5.90;1.80;;;20.50;83.40;;;;;;4130943;28;20050;-56
2023/07/13 01:52:38;;;;;;;5.45;1.60;;;20.50;83.50;;;;;;4130596;28;20046;-52
2023/07/13 01:54:41;;;;;;;5.03;1.38;;;20.50;83.50;;;;;;4129569;28;20050;-60
2023/07/13 01:56:43;;;;;;;6.75;1.73;;;20.50;84.00;;;;;;4130551;28;20045;-52
2023/07/13 01:58:45;;;;;;;3.47;1.58;;;20.50;83.50;;;;;;4130665;28;20093;-53
2023/07/13 02:00:49;;;;;;;7.43;2.15;;;20.50;83.60;;;;;;4130483;28;20486;-51
2023/07/13 02:02:52;;;;;;;4.53;1.73;;;20.40;83.80;;;;;;4130357;28;20038;-52
2023/07/13 02:04:54;;;;;;;6.60;1.80;;;20.30;82.80;;;;;;4129779;28;20038;-51
2023/07/13 02:06:56;;;;;;;10.80;1.95;;;20.30;82.70;;;;;;4130578;28;20104;-52
2023/07/13 02:08:59;;;;;;;4.45;1.75;;;20.30;82.80;;;;;;4129417;28;20088;-52
2023/07/13 02:11:04;;;;;;;4.97;1.92;;;20.20;83.00;;;;;;4130644;28;20050;-51
2023/07/13 02:13:07;;;;;;;4.43;1.40;;;20.20;83.00;;;;;;4130462;28;20489;-52
2023/07/13 02:15:10;;;;;;;5.82;1.95;;;20.30;83.00;;;;;;4129785;28;20050;-54
2023/07/13 02:17:13;;;;;;;7.97;1.83;;;20.30;83.00;;;;;;4131143;28;20125;-52
2023/07/13 02:19:15;;;;;;;7.80;1.85;;;20.20;82.90;;;;;;4127069;28;20042;-52
2023/07/13 02:21:19;;;;;;;5.32;1.90;;;20.30;82.70;;;;;;4130769;28;20058;-55
2023/07/13 02:23:22;;;;;;;5.85;1.63;;;20.30;82.40;;;;;;4130973;28;20069;-53
2023/07/13 02:25:25;;;;;;;4.63;1.45;;;20.30;83.00;;;;;;4132910;28;20089;-52
2023/07/13 02:27:28;;;;;;;7.05;1.92;;;20.20;83.00;;;;;;4133920;28;20077;-51
2023/07/13 02:29:31;;;;;;;7.15;2.17;;;20.10;83.20;;;;;;4133650;28;20046;-52
2023/07/13 02:31:35;;;;;;;5.60;1.85;;;20.20;83.20;;;;;;4133648;28;20046;-56
2023/07/13 02:33:38;;;;;;;;;;;20.20;83.10;;;;;;4133547;28;20054;-52
2023/07/13 02:35:40;;;;;;;5.10;1.70;;;20.20;83.60;;;;;;4132785;28;19973;-52
2023/07/13 02:37:42;;;;;;;5.53;1.88;;;20.10;83.20;;;;;;4133772;28;20042;-52
2023/07/13 02:39:47;;;;;;;4.63;1.67;;;20.10;83.20;;;;;;4133072;28;20043;-52
2023/07/13 02:41:50;;;;;;;4.55;1.42;;;20.10;83.60;;;;;;4135540;28;20042;-55
2023/07/13 02:43:54;;;;;;;7.75;1.58;;;20.10;83.60;;;;;;4133760;28;20489;-52
2023/07/13 02:45:56;;;;;;;9.52;1.70;;;20.10;83.50;;;;;;4132743;28;20050;-52
2023/07/13 02:47:59;;;;;;;5.88;1.75;;;20.10;83.40;;;;;;4132001;28;20081;-52
2023/07/13 02:50:01;;;;;;;3.47;1.52;;;20.10;83.40;;;;;;4133363;28;20047;-52
2023/07/13 02:52:04;;;;;;;6.35;1.80;;;20.10;83.40;;;;;;4133384;28;20129;-52
2023/07/13 02:54:08;;;;;;;11.30;2.45;;;20.10;83.20;;;;;;4132491;28;20503;-52
2023/07/13 02:56:10;;;;;;;4.95;1.58;;;20.00;83.10;;;;;;4133441;28;20066;-52
2023/07/13 02:58:17;;;;;;;8.85;1.52;;;20.10;83.20;;;;;;4133226;28;20077;-52
2023/07/13 03:00:21;;;;;;;;;;;20.10;83.50;;;;;;4116279;28;20070;-53
2023/07/13 03:02:24;;;;;;;5.35;2.08;;;20.10;83.50;;;;;;4132929;28;20385;-52
2023/07/13 03:04:26;;;;;;;5.55;1.95;;;19.90;83.40;;;;;;4131761;28;20493;-52
2023/07/13 03:06:30;;;;;;;3.92;1.55;;;20.00;83.60;;;;;;4132812;28;20042;-52
2023/07/13 03:08:35;;;;;;;6.40;1.73;;;20.00;83.00;;;;;;4132915;28;20062;-52
2023/07/13 03:10:37;;;;;;;6.97;1.83;;;20.00;83.40;;;;;;4132742;28;20074;-52
2023/07/13 03:12:39;;;;;;;6.47;2.05;;;20.00;82.90;;;;;;4132718;28;20046;-52
2023/07/13 03:14:41;;;;;;;3.67;1.20;;;20.00;83.20;;;;;;4131557;28;20046;-52
2023/07/13 03:16:45;;;;;;;7.70;1.73;;;20.00;83.50;;;;;;4132731;28;20390;-52
2023/07/13 03:18:48;;;;;;;6.75;1.40;;;20.00;83.40;;;;;;4132976;28;20056;-52
2023/07/13 03:20:51;;;;;;;4.88;2.17;;;20.00;83.70;;;;;;4132693;28;20100;-52
2023/07/13 03:22:53;;;;;;;8.40;1.75;;;20.00;84.10;;;;;;4132520;28;20046;-53
2023/07/13 03:24:55;;;;;;;6.80;1.55;;;20.00;83.50;;;;;;4131686;28;20095;-52
2023/07/13 03:27:00;;;;;;;5.38;1.73;;;20.00;83.30;;;;;;4122261;28;20046;-52
2023/07/13 03:29:02;;;;;;;5.43;1.70;;;19.90;82.80;;;;;;4132666;28;20082;-52
2023/07/13 03:31:28;;;;;;;5.10;1.67;;;19.90;83.10;;;;;;4130702;28;20460;-52
2023/07/13 03:33:35;;;;;;;5.03;1.80;;;19.90;83.10;;;;;;4117138;28;20046;-52
2023/07/13 03:35:41;;;;;;;7.05;1.70;;;19.90;83.30;;;;;;4122689;28;20524;-52
2023/07/13 03:37:43;;;;;;;7.15;2.00;;;19.90;83.20;;;;;;4132414;28;20054;-52
2023/07/13 03:39:46;;;;;;;5.28;1.30;;;19.90;82.90;;;;;;4131055;28;20676;-52
2023/07/13 03:41:48;;;;;;;11.80;1.92;;;19.80;83.40;;;;;;4131855;28;20073;-51
2023/07/13 03:43:51;;;;;;;4.68;1.55;;;19.80;83.30;;;;;;4116399;28;20057;-50
2023/07/13 03:45:53;;;;;;;3.13;1.00;;;19.80;83.10;;;;;;4122485;28;20053;-51
2023/07/13 03:47:55;;;;;;;5.35;1.73;;;19.70;83.30;;;;;;4132307;28;20113;-51
2023/07/13 03:49:59;;;;;;;6.45;1.63;;;19.70;83.50;;;;;;4132389;28;20078;-51
2023/07/13 03:52:01;;;;;;;7.78;1.70;;;19.70;83.70;;;;;;4132108;28;20050;-52
2023/07/13 03:54:04;;;;;;;5.10;1.42;;;19.80;84.00;;;;;;4132259;28;20053;-52
2023/07/13 03:56:06;;;;;;;5.70;1.55;;;19.80;83.80;;;;;;4131281;28;20038;-51
2023/07/13 03:58:30;;;;;;;5.15;2.00;;;19.70;84.50;;;;;;4130814;28;20081;-53
2023/07/13 04:00:32;;;;;;;5.15;1.60;;;19.70;84.40;;;;;;4117189;28;20462;-52
2023/07/13 04:02:35;;;;;;;5.00;1.40;;;19.70;85.00;;;;;;4115289;28;20042;-51
2023/07/13 04:04:40;;;;;;;9.98;2.00;;;19.70;84.40;;;;;;4115191;28;20046;-52
2023/07/13 04:06:45;;;;;;;11.70;1.90;;;19.70;84.50;;;;;;4115791;28;20072;-51
2023/07/13 04:08:49;;;;;;;7.50;1.85;;;19.80;84.80;;;;;;4115989;28;20057;-51
2023/07/13 04:10:52;;;;;;;4.77;1.20;;;19.80;85.00;;;;;;4115637;28;20047;-52
2023/07/13 04:12:54;;;;;;;8.27;1.90;;;19.70;85.20;;;;;;4114808;28;20050;-52
2023/07/13 04:14:56;;;;;;;5.57;1.67;;;19.70;85.20;;;;;;4115124;28;20055;-52
2023/07/13 04:16:58;;;;;;;5.18;1.52;;;19.80;85.40;;;;;;4115757;28;20047;-52
2023/07/13 04:19:00;;;;;;;10.35;1.85;;;19.80;85.70;;;;;;4115856;28;20080;-51
2023/07/13 04:21:03;;;;;;;11.45;1.92;;;19.70;85.80;;;;;;4116088;28;20515;-50
2023/07/13 04:23:07;;;;;;;6.68;1.90;;;19.70;86.00;;;;;;4115609;28;20058;-50
2023/07/13 04:25:09;;;;;;;6.90;2.17;;;19.70;86.10;;;;;;4114580;28;20053;-55
2023/07/13 04:27:11;;;;;;;6.57;1.77;;;19.70;86.10;;;;;;4113820;28;20042;-51
2023/07/13 04:29:13;;;;;;;8.77;2.17;;;19.70;86.20;;;;;;4115630;28;20414;-52
2023/07/13 04:31:16;;;;;;;4.82;1.65;;;19.70;86.30;;;;;;4115791;28;20043;-52
2023/07/13 04:33:22;;;;;;;5.95;1.73;;;19.70;86.50;;;;;;4115621;28;20079;-52
2023/07/13 04:35:24;;;;;;;8.68;2.35;;;19.60;86.40;;;;;;4113150;28;20129;-53
2023/07/13 04:37:27;;;;;;;7.10;2.22;;;19.70;86.50;;;;;;4115087;28;20053;-52
2023/07/13 04:39:30;;;;;;;6.05;1.63;;;19.70;86.20;;;;;;4115612;28;20130;-55
2023/07/13 04:41:32;;;;;;;6.65;2.30;;;19.70;86.40;;;;;;4115528;28;20042;-53
2023/07/13 04:43:35;;;;;;;6.50;1.83;;;19.60;87.00;;;;;;4115150;28;20085;-52
2023/07/13 04:45:37;;;;;;;7.03;1.52;;;19.60;87.00;;;;;;4114600;28;20050;-51
2023/07/13 04:47:40;;;;;;;8.52;1.60;;;19.60;87.00;;;;;;4115470;28;20584;-52
2023/07/13 04:49:42;;;;;;;5.93;1.63;;;19.50;87.50;;;;;;4115601;28;20482;-52
2023/07/13 04:51:44;;;;;;;6.00;2.10;;;19.60;87.50;;;;;;4116495;28;20046;-53
2023/07/13 04:53:46;;;;;;;7.85;2.40;;;19.50;87.70;;;;;;4115528;28;20042;-52
2023/07/13 04:55:50;;;;;;;9.95;2.33;;;19.50;87.70;;;;;;4114090;28;20478;-52
2023/07/13 04:57:53;;;;;;;7.68;2.75;;;19.60;87.60;;;;;;4113851;28;20039;-53
2023/07/13 04:59:55;;;;;;;8.98;2.90;;;19.60;87.30;;;;;;4115216;28;20043;-52
2023/07/13 05:01:57;;;;;;;5.40;2.58;;;19.60;87.60;;;;;;4115426;28;20039;-57
2023/07/13 05:03:59;;;;;;;9.57;2.35;;;19.70;87.50;;;;;;4114899;28;20091;-54
2023/07/13 05:06:04;;;;;;;8.30;2.20;;;19.70;87.30;;;;;;4114145;28;20105;-52
2023/07/13 05:08:07;;;;;;;8.68;2.90;;;19.70;87.60;;;;;;4114992;28;20050;-52
2023/07/13 05:10:10;;;;;;;6.63;2.10;;;19.70;87.70;;;;;;4114664;28;20054;-50
2023/07/13 05:12:18;;;;;;;7.65;2.90;;;19.70;87.90;;;;;;4115225;28;20053;-51
2023/07/13 05:14:20;;;;;;;7.55;2.60;;;19.60;87.80;;;;;;4114889;28;20057;-53
2023/07/13 05:16:23;;;;;;;5.78;2.38;;;19.70;87.90;;;;;;4114314;28;20219;-52
2023/07/13 05:18:25;;;;;;;10.75;2.80;;;19.70;87.90;;;;;;4115074;28;20101;-51
2023/07/13 05:20:27;;;;;;;8.43;2.85;;;19.70;88.10;;;;;;4115069;28;20050;-55
2023/07/13 05:22:35;;;;;;;9.10;2.38;;;19.70;87.90;;;;;;4116262;28;20121;-51
2023/07/13 05:24:37;;;;;;;9.80;2.72;;;19.70;88.00;;;;;;4114247;28;20042;-52
2023/07/13 05:26:39;;;;;;;7.90;2.30;;;19.80;87.70;;;;;;4115192;28;20065;-52
2023/07/13 05:28:44;;;;;;;6.97;2.30;;;19.80;87.70;;;;;;4130341;28;20085;-52
2023/07/13 05:30:46;;;;;;;9.77;2.72;;;19.80;88.10;;;;;;4115468;28;20066;-52
2023/07/13 05:32:48;;;;;;;6.30;2.30;;;19.80;88.00;;;;;;4116107;28;20050;-53
2023/07/13 05:34:51;;;;;;;5.78;2.45;;;19.80;88.00;;;;;;4114596;28;20046;-52
2023/07/13 05:36:53;;;;;;;7.25;2.40;;;19.90;87.90;;;;;;4114766;28;20109;-53
2023/07/13 05:38:55;;;;;;;11.23;2.47;;;19.90;88.10;;;;;;4114645;28;20511;-52
2023/07/13 05:40:57;;;;;;;6.97;2.13;;;20.00;88.00;;;;;;4114719;28;20074;-52
2023/07/13 05:43:00;;;;;;;5.68;1.92;;;20.00;88.00;;;;;;4115346;28;20080;-52
2023/07/13 05:45:05;;;;;;;7.90;2.25;;;20.00;88.20;;;;;;4113823;28;20585;-51
2023/07/13 05:47:07;;;;;;;7.53;2.30;;;20.00;88.10;;;;;;4114588;28;20058;-51
2023/07/13 05:49:09;;;;;;;5.55;2.03;;;20.00;88.00;;;;;;4114700;28;20055;-52
2023/07/13 05:51:11;;;;;;;4.72;2.08;;;20.00;88.00;;;;;;4114451;28;20502;-52
2023/07/13 05:53:14;;;;;;;6.25;1.83;;;19.90;88.00;;;;;;4114691;28;20054;-52
2023/07/13 05:55:16;;;;;;;7.38;2.30;;;19.90;88.00;;;;;;4113929;28;20047;-54
2023/07/13 05:57:18;;;;;;;12.48;2.67;;;19.90;88.20;;;;;;4114847;28;20066;-51
2023/07/13 05:59:20;;;;;;;3.85;1.70;;;20.00;87.80;;;;;;4131262;28;20062;-52
2023/07/13 06:01:24;;;;;;;8.43;2.05;;;20.10;87.60;;;;;;4134408;28;20042;-57
2023/07/13 06:03:26;;;;;;;6.50;1.85;;;20.10;87.70;;;;;;4134181;28;20050;-52
2023/07/13 06:05:28;;;;;;;5.13;1.83;;;20.10;87.60;;;;;;4132880;28;20042;-55
2023/07/13 06:07:31;;;;;;;5.80;1.88;;;20.20;87.50;;;;;;4133621;28;20054;-53
2023/07/13 06:09:33;;;;;;;5.97;2.15;;;20.20;87.00;;;;;;4134155;28;20120;-52
2023/07/13 06:11:35;;;;;;;6.60;2.20;;;20.30;86.80;;;;;;4133692;28;20042;-52
2023/07/13 06:13:37;;;;;;;6.13;2.10;;;20.30;86.90;;;;;;4133658;28;20046;-53
2023/07/13 06:15:40;;;;;;;8.18;1.95;;;20.30;86.70;;;;;;4132441;28;20390;-51
2023/07/13 06:17:43;;;;;;;8.88;2.65;;;20.40;86.40;;;;;;4133661;28;20089;-53
2023/07/13 06:19:46;;;;;;;8.18;2.28;;;20.50;86.60;;;;;;4133881;28;20042;-52
2023/07/13 06:21:48;;;;;;;5.35;2.00;;;20.40;86.50;;;;;;4133046;28;20051;-52
2023/07/13 06:23:51;;;;;;;9.25;1.90;;;20.40;86.40;;;;;;4133702;28;20340;-54
2023/07/13 06:25:53;;;;;;;14.50;2.47;;;20.40;86.50;;;;;;4132300;28;20101;-51
2023/07/13 06:27:55;;;;;;;13.27;2.38;;;20.50;86.40;;;;;;4133963;28;20042;-53
2023/07/13 06:29:57;;;;;;;6.32;2.08;;;20.60;86.00;;;;;;4133969;28;20121;-52
2023/07/13 06:31:59;;;;;;;8.48;2.05;;;20.60;85.90;;;;;;4133404;28;20407;-53
2023/07/13 06:34:03;;;;;;;13.80;2.28;;;20.70;86.00;;;;;;4133738;28;20050;-53
2023/07/13 06:36:07;;;;;;;7.47;2.17;;;20.70;86.00;;;;;;4131955;28;20096;-53
2023/07/13 06:38:09;;;;;;;11.70;1.92;;;20.70;86.10;;;;;;4132418;28;20049;-52
2023/07/13 06:40:12;;;;;;;7.95;2.22;;;20.70;86.40;;;;;;4133299;28;20070;-52
2023/07/13 06:42:16;;;;;;;8.35;2.20;;;20.80;86.10;;;;;;4133158;28;20053;-52
2023/07/13 06:44:18;;;;;;;8.93;2.25;;;20.70;86.00;;;;;;4133269;28;20051;-52
2023/07/13 06:46:21;;;;;;;5.60;1.88;;;20.70;86.30;;;;;;4132176;28;20066;-52
2023/07/13 06:48:24;;;;;;;14.35;2.85;;;20.70;86.10;;;;;;4133369;28;20042;-52
2023/07/13 06:50:27;;;;;;;8.90;2.40;;;20.70;86.30;;;;;;4133136;28;20073;-53
2023/07/13 06:52:29;;;;;;;10.20;2.83;;;20.60;86.40;;;;;;4133079;28;20042;-53
2023/07/13 06:54:31;;;;;;;6.10;2.25;;;20.60;86.60;;;;;;4132975;28;20046;-52
2023/07/13 06:56:34;;;;;;;6.13;2.20;;;20.70;86.40;;;;;;4131840;28;20460;-52
2023/07/13 06:58:36;;;;;;;6.82;1.85;;;20.60;86.80;;;;;;4132855;28;20150;-52
2023/07/13 07:00:40;;;;;;;5.90;2.03;;;20.60;87.00;;;;;;4133049;28;20097;-52
2023/07/13 07:02:42;;;;;;;5.65;2.47;;;20.60;86.60;;;;;;4132675;28;20057;-52
2023/07/13 07:04:44;;;;;;;10.98;2.45;;;20.60;87.00;;;;;;4132900;28;20141;-53
2023/07/13 07:06:51;;;;;;;9.55;2.20;;;20.70;87.20;;;;;;4131648;28;20521;-52
2023/07/13 07:08:53;;;;;;;10.60;2.13;;;20.70;87.20;;;;;;4129282;28;20053;-57
2023/07/13 07:10:55;;;;;;;8.30;2.20;;;20.80;87.10;;;;;;4131755;28;20050;-52
2023/07/13 07:12:57;;;;;;;7.47;2.83;;;20.80;87.10;;;;;;4132733;28;20129;-52
2023/07/13 07:14:59;;;;;;;12.77;2.50;;;20.90;87.00;;;;;;4131900;28;20046;-51
2023/07/13 07:17:01;;;;;;;5.57;1.90;;;21.00;86.80;;;;;;4132598;28;20089;-52
2023/07/13 07:19:04;;;;;;;10.32;1.88;;;21.30;86.40;;;;;;4132806;28;20062;-53
2023/07/13 07:21:06;;;;;;;8.05;2.22;;;21.40;86.00;;;;;;4132364;28;20517;-56
2023/07/13 07:23:10;;;;;;;6.20;1.88;;;21.70;85.80;;;;;;4132089;28;20097;-52
2023/07/13 07:25:12;;;;;;;6.45;2.25;;;22.10;85.20;;;;;;4131451;28;20042;-57
2023/07/13 07:27:14;;;;;;;9.95;2.47;;;22.20;84.80;;;;;;4132511;28;20053;-53
2023/07/13 07:29:19;;;;;;;;;;;22.20;84.80;;;;;;4132923;28;20505;-53
2023/07/13 07:31:24;;;;;;;8.88;2.22;;;22.20;84.60;;;;;;4120335;28;20380;-51
2023/07/13 07:33:29;;;;;;;4.30;1.55;;;22.10;84.30;;;;;;4132125;28;20125;-51
2023/07/13 07:35:31;;;;;;;8.35;2.13;;;22.10;84.20;;;;;;4131171;28;20046;-52
2023/07/13 07:37:38;;;;;;;8.55;1.83;;;22.00;84.40;;;;;;4132353;28;20069;-53
2023/07/13 07:39:45;;;;;;;10.45;2.55;;;22.00;84.60;;;;;;4131175;28;20073;-52
2023/07/13 07:42:07;;;;;;;6.95;2.53;;;22.10;84.60;;;;;;4132587;28;20042;-53
2023/07/13 07:44:10;;;;;;;9.63;2.40;;;22.20;84.40;;;;;;4132108;28;20081;-52
2023/07/13 07:46:12;;;;;;;8.13;1.80;;;22.40;84.20;;;;;;4114051;28;20057;-53
2023/07/13 07:48:15;;;;;;;10.52;2.63;;;22.60;83.70;;;;;;4132260;28;20104;-52
2023/07/13 07:50:19;;;;;;;6.05;1.80;;;22.70;83.10;;;;;;4117853;28;20074;-59
2023/07/13 07:52:21;;;;;;;8.70;1.93;;;22.80;83.00;;;;;;4132882;28;20672;-52
2023/07/13 07:54:24;;;;;;;8.73;2.15;;;22.70;83.40;;;;;;4130749;28;20488;-52
2023/07/13 07:56:47;;;;;;;8.02;2.28;;;22.70;83.40;;;;;;4131261;28;20097;-52
2023/07/13 07:59:10;;;;;;;11.32;2.25;;;22.80;83.50;;;;;;4131960;28;20578;-53
2023/07/13 08:01:16;;;;;;;9.13;2.00;;;22.80;83.60;;;;;;4132400;28;20073;-53
2023/07/13 08:03:21;;;;;;;6.40;2.10;;;23.00;83.40;;;;;;4130737;28;20101;-52
2023/07/13 08:05:26;;;;;;;;;;;23.00;82.80;;;;;;4131579;28;20073;-52
2023/07/13 08:07:43;;;;;;;9.10;2.28;;;22.90;82.80;;;;;;4116067;28;20013;-52
2023/07/13 08:09:46;;;;;;;8.02;2.47;;;22.80;83.80;;;;;;4123780;28;20053;-52
2023/07/13 08:11:52;;;;;;;8.48;1.98;;;22.90;83.50;;;;;;4131754;28;20121;-52
2023/07/13 08:13:57;;;;;;;8.15;1.83;;;22.80;83.20;;;;;;4131740;28;20077;-52
2023/07/13 08:15:59;;;;;;;6.25;2.05;;;22.90;83.10;;;;;;4129366;28;20126;-53
2023/07/13 08:18:02;;;;;;;9.27;2.47;;;23.10;82.90;;;;;;4131425;28;20053;-52
2023/07/13 08:20:05;;;;;;;8.40;2.20;;;23.10;82.80;;;;;;4131791;28;20046;-52
2023/07/13 08:22:07;;;;;;;9.13;2.55;;;22.90;82.40;;;;;;4131940;28;20478;-53
2023/07/13 08:24:09;;;;;;;5.13;2.00;;;22.80;82.70;;;;;;4132379;28;20042;-53
2023/07/13 08:26:12;;;;;;;13.00;2.05;;;22.90;83.70;;;;;;4130927;28;20046;-53
2023/07/13 08:28:15;;;;;;;6.03;1.98;;;23.10;82.90;;;;;;4131889;28;20046;-58
2023/07/13 08:30:17;;;;;;;8.38;1.95;;;23.20;83.20;;;;;;4131503;28;20266;-52
2023/07/13 08:32:21;;;;;;;4.47;1.63;;;23.40;82.70;;;;;;4134855;28;20130;-52
2023/07/13 08:34:23;;;;;;;6.60;2.20;;;23.40;81.80;;;;;;4131999;28;20104;-53
2023/07/13 08:36:26;;;;;;;6.90;2.35;;;23.50;81.60;;;;;;4129097;28;20077;-53
2023/07/13 08:38:28;;;;;;;6.38;1.85;;;23.50;81.10;;;;;;4131497;28;20181;-52
2023/07/13 08:40:31;;;;;;;7.63;1.98;;;23.50;80.80;;;;;;4130156;28;20100;-57
2023/07/13 08:42:39;;;;;;;9.35;2.15;;;23.40;81.10;;;;;;4131899;28;20283;-52
2023/07/13 08:44:53;;;;;;;6.72;1.77;;;23.60;81.50;;;;;;4131362;28;20133;-52
2023/07/13 08:46:58;;;;;;;7.07;1.85;;;23.50;80.80;;;;;;4128729;28;20473;-53
2023/07/13 08:49:04;;;;;;;9.02;2.33;;;23.60;80.60;;;;;;4115544;28;20495;-51
2023/07/13 08:51:18;;;;;;;8.15;1.90;;;23.50;80.10;;;;;;4123141;28;20053;-52
2023/07/13 08:53:22;;;;;;;7.68;1.70;;;23.40;80.20;;;;;;4131390;28;20049;-56
2023/07/13 08:55:29;;;;;;;4.23;1.70;;;23.40;79.50;;;;;;4130587;28;20124;-53
2023/07/13 08:57:33;;;;;;;4.93;1.52;;;23.60;79.10;;;;;;4127496;28;20060;-53
2023/07/13 08:59:35;;;;;;;4.95;1.73;;;23.70;79.00;;;;;;4131225;28;20050;-56
2023/07/13 09:01:54;;;;;;;5.38;1.75;;;23.90;78.70;;;;;;4130776;28;20081;-53
2023/07/13 09:04:04;;;;;;;7.30;1.90;;;23.80;77.60;;;;;;4131054;28;20046;-52
2023/07/13 09:06:10;;;;;;;4.43;1.65;;;24.00;79.00;;;;;;4128955;28;20042;-53
2023/07/13 09:08:31;;;;;;;7.72;1.70;;;24.00;77.90;;;;;;4131320;28;20038;-52
2023/07/13 09:10:40;;;;;;;17.40;2.50;;;23.90;76.40;;;;;;4131527;28;20053;-53
2023/07/13 09:13:00;;;;;;;9.52;2.05;;;24.00;76.60;;;;;;4131372;28;20085;-52
2023/07/13 09:15:06;;;;;;;9.88;2.10;;;24.10;75.80;;;;;;4115201;28;20059;-52
2023/07/13 09:17:16;;;;;;;9.15;2.15;;;24.00;76.90;;;;;;4122919;28;20058;-52
2023/07/13 09:19:26;;;;;;;5.55;1.75;;;24.00;76.70;;;;;;4129566;28;20053;-51
2023/07/13 09:21:31;;;;;;;6.82;1.90;;;23.90;76.40;;;;;;4131070;28;20459;-53
2023/07/13 09:23:35;;;;;;;6.60;1.73;;;24.10;76.30;;;;;;4126238;28;20138;-53
2023/07/13 09:25:39;;;;;;;4.03;1.75;;;24.20;75.40;;;;;;4125341;28;20600;-53
2023/07/13 09:27:44;;;;;;;7.82;1.58;;;24.20;74.90;;;;;;4125191;28;20052;-52
2023/07/13 09:29:51;;;;;;;6.97;1.50;;;24.20;74.40;;;;;;4130631;28;20504;-54
2023/07/13 09:31:58;;;;;;;6.80;1.50;;;24.20;74.60;;;;;;4130298;28;20050;-53
2023/07/13 09:34:02;;;;;;;6.35;1.63;;;24.00;74.50;;;;;;4127035;28;20402;-52
2023/07/13 09:36:17;;;;;;;4.82;1.50;;;23.90;75.30;;;;;;4113944;28;20473;-53
2023/07/13 09:38:22;;;;;;;6.57;1.60;;;23.80;75.10;;;;;;4127978;28;20540;-56
2023/07/13 09:40:36;;;;;;;14.85;2.42;;;23.70;75.60;;;;;;4130967;28;20054;-52
2023/07/13 09:42:38;;;;;;;20.35;2.50;;;23.50;75.60;;;;;;4127842;28;20050;-53
2023/07/13 09:44:52;;;;;;;8.05;1.83;;;23.40;76.00;;;;;;4112883;28;20051;-53
2023/07/13 09:46:55;;;;;;;15.50;2.15;;;23.40;76.30;;;;;;4129721;28;20047;-53
2023/07/13 09:48:57;;;;;;;7.75;1.80;;;23.40;76.80;;;;;;4130830;28;20052;-53
2023/07/13 09:51:15;;;;;;;8.23;1.80;;;23.50;76.40;;;;;;4130117;28;20074;-53
2023/07/13 09:53:19;;;;;;;6.38;1.50;;;23.40;76.00;;;;;;4130572;28;20043;-52
2023/07/13 09:55:26;;;;;;;15.30;1.90;;;23.20;76.80;;;;;;4130233;28;20508;-54
2023/07/13 09:57:29;;;;;;;8.60;1.85;;;23.20;77.70;;;;;;4130425;28;20089;-51
2023/07/13 09:59:53;;;;;;;9.50;1.65;;;23.30;76.80;;;;;;4122783;28;20061;-60
2023/07/13 10:01:55;;;;;;;9.10;1.85;;;23.30;77.30;;;;;;4129722;28;20046;-55
2023/07/13 10:03:58;;;;;;;3.58;1.25;;;23.20;77.10;;;;;;4129623;28;20437;-51
2023/07/13 10:06:12;;;;;;;3.38;1.20;;;23.20;77.30;;;;;;4129568;28;20053;-54
2023/07/13 10:08:24;;;;;;;7.80;1.63;;;23.20;77.40;;;;;;4128710;28;20430;-52
2023/07/13 10:10:30;;;;;;;6.68;2.08;;;23.20;77.70;;;;;;4112705;28;20046;-55
2023/07/13 10:12:38;;;;;;;7.30;1.50;;;23.20;78.00;;;;;;4130823;28;20073;-53
2023/07/13 10:14:42;;;;;;;5.55;1.83;;;23.30;77.70;;;;;;4128790;28;20050;-52
2023/07/13 10:16:45;;;;;;;10.43;1.98;;;23.40;76.90;;;;;;4128302;28;20058;-51
2023/07/13 10:18:50;;;;;;;6.35;1.50;;;23.40;77.00;;;;;;4130125;28;20461;-52
2023/07/13 10:21:09;;;;;;;4.38;1.70;;;23.50;76.60;;;;;;4129336;28;20141;-52
2023/07/13 10:23:32;;;;;;;;;;;23.60;77.00;;;;;;4130965;28;20391;-53
2023/07/13 10:25:40;;;;;;;6.18;1.27;;;23.60;75.70;;;;;;4129194;28;19926;-54
2023/07/13 10:27:43;;;;;;;6.20;1.85;;;23.50;75.80;;;;;;4129872;28;20086;-52
2023/07/13 10:29:51;;;;;;;8.77;1.73;;;23.50;76.30;;;;;;4128272;28;20092;-57
2023/07/13 10:31:53;;;;;;;4.72;1.65;;;23.50;76.80;;;;;;4125248;28;20042;-52
2023/07/13 10:33:56;;;;;;;4.10;1.40;;;23.50;76.30;;;;;;4124702;28;20126;-53
2023/07/13 10:36:05;;;;;;;7.53;1.60;;;23.40;77.30;;;;;;4128652;28;20482;-53
2023/07/13 10:38:13;;;;;;;12.05;2.17;;;23.40;77.10;;;;;;4130312;28;20066;-52
2023/07/13 10:40:24;;;;;;;7.45;1.50;;;23.30;77.40;;;;;;4128382;28;20430;-53
2023/07/13 10:42:30;;;;;;;6.50;1.50;;;23.10;77.60;;;;;;4127771;28;20043;-53
2023/07/13 10:44:33;;;;;;;7.20;1.65;;;22.90;77.80;;;;;;4129525;28;20046;-52
2023/07/13 10:46:36;;;;;;;7.93;2.03;;;22.90;78.50;;;;;;4120016;28;20530;-58
2023/07/13 10:48:39;;;;;;;8.85;1.80;;;23.10;78.10;;;;;;4132208;28;20482;-59